Time;durP1;ratioP1;P1;durP2;ratioP2;P2;SDS_P1;SDS_P2;PMS_P1;PMS_P2;Temp;Humidity;BMP_temperature;BMP_pressure;BME280_temperature;BME280_humidity;BME280_pressure;Samples;Min_cycle;Max_cycle;Signal;HPM_P1;HPM_P2
2022/12/25 00:00:22;;;;;;;6.38;3.15;;;11.00;89.50;;;;;;5052817;28;20052;-82
2022/12/25 00:02:48;;;;;;;6.30;3.25;;;11.00;89.60;;;;;;5051047;28;20086;-83
2022/12/25 00:05:13;;;;;;;6.28;2.92;;;11.00;89.60;;;;;;5052952;28;20028;-82
2022/12/25 00:07:39;;;;;;;6.60;3.00;;;11.00;89.60;;;;;;5051727;28;20029;-84
2022/12/25 00:10:05;;;;;;;6.43;3.05;;;11.00;89.60;;;;;;5052064;28;20025;-83
2022/12/25 00:12:31;;;;;;;6.05;3.15;;;11.00;89.60;;;;;;5031307;28;20652;-82
2022/12/25 00:14:56;;;;;;;7.05;2.95;;;11.00;89.60;;;;;;5047771;28;20086;-82
2022/12/25 00:17:22;;;;;;;6.00;2.83;;;11.00;89.60;;;;;;5051809;28;20028;-82
2022/12/25 00:19:47;;;;;;;6.65;3.20;;;11.00;89.70;;;;;;5052022;28;20498;-82
2022/12/25 00:22:12;;;;;;;6.93;3.00;;;11.00;89.60;;;;;;5053181;28;20016;-82
2022/12/25 00:24:38;;;;;;;5.25;3.03;;;10.90;89.60;;;;;;5052975;28;20036;-82
2022/12/25 00:27:03;;;;;;;5.80;2.97;;;11.00;89.70;;;;;;5051599;28;20017;-82
2022/12/25 00:29:29;;;;;;;6.45;2.97;;;11.00;89.60;;;;;;5051969;28;20033;-81
2022/12/25 00:31:54;;;;;;;6.60;3.00;;;11.00;89.60;;;;;;5046842;28;20064;-82
2022/12/25 00:34:20;;;;;;;6.40;3.03;;;10.90;89.60;;;;;;5031656;28;20045;-81
2022/12/25 00:36:48;;;;;;;7.07;3.30;;;11.00;89.70;;;;;;5039389;28;20021;-82
2022/12/25 00:39:14;;;;;;;7.60;3.00;;;11.00;89.60;;;;;;5050952;28;20032;-82
2022/12/25 00:44:23;;;;;;;5.68;3.08;;;10.90;89.70;;;;;;5045622;28;20045;-84
2022/12/25 00:46:49;;;;;;;6.13;3.00;;;11.00;89.70;;;;;;5055022;28;20479;-83
2022/12/25 00:49:14;;;;;;;7.13;3.15;;;11.00;89.70;;;;;;5057135;28;20033;-83
2022/12/25 00:51:39;;;;;;;7.63;3.00;;;11.00;89.70;;;;;;5056810;28;20052;-83
2022/12/25 00:54:05;;;;;;;6.03;2.90;;;11.00;89.60;;;;;;5057129;28;20025;-83
2022/12/25 00:56:31;;;;;;;8.68;3.53;;;10.90;89.60;;;;;;5057788;28;20025;-83
2022/12/25 00:58:56;;;;;;;6.88;2.97;;;11.00;89.60;;;;;;5056967;28;20543;-82
2022/12/25 01:01:22;;;;;;;5.75;2.70;;;11.00;89.70;;;;;;5056836;28;20021;-84
2022/12/25 01:03:47;;;;;;;6.85;3.22;;;11.00;89.60;;;;;;5056528;28;20060;-83
2022/12/25 01:06:13;;;;;;;6.97;3.15;;;11.00;89.60;;;;;;5056046;28;20057;-83
2022/12/25 01:10:21;;;;;;;6.10;2.92;;;11.00;89.60;;;;;;5056341;28;20029;-83
2022/12/25 01:11:26;;;;;;;5.90;2.70;;;11.00;89.60;;;;;;5056922;28;20029;-83
2022/12/25 01:13:51;;;;;;;5.30;2.55;;;11.00;89.60;;;;;;5042028;28;20059;-82
2022/12/25 01:16:17;;;;;;;5.40;2.50;;;11.00;89.50;;;;;;5052697;28;20036;-82
2022/12/25 01:18:45;;;;;;;6.65;3.10;;;11.00;89.50;;;;;;5035905;28;20025;-83
2022/12/25 01:21:15;;;;;;;6.78;2.92;;;11.00;89.50;;;;;;5050808;28;20029;-84
2022/12/25 01:23:41;;;;;;;6.70;2.80;;;11.00;89.50;;;;;;5051577;28;20025;-84
2022/12/25 01:26:09;;;;;;;6.00;2.60;;;11.00;89.50;;;;;;5035639;28;20022;-85
2022/12/25 01:28:36;;;;;;;5.35;2.55;;;11.00;89.50;;;;;;5052194;28;20033;-84
2022/12/25 01:31:02;;;;;;;5.95;2.78;;;11.00;89.50;;;;;;5038359;28;20021;-83
2022/12/25 01:33:27;;;;;;;6.45;2.75;;;10.90;89.50;;;;;;5051827;28;20510;-82
2022/12/25 01:35:53;;;;;;;6.32;2.92;;;11.00;89.60;;;;;;5035430;28;20053;-84
2022/12/25 01:38:19;;;;;;;5.38;2.70;;;11.00;89.50;;;;;;5052805;28;20068;-83
2022/12/25 01:40:44;;;;;;;6.07;3.03;;;11.00;89.50;;;;;;5036417;28;20514;-83
2022/12/25 01:43:24;;;;;;;5.88;2.97;;;11.00;89.60;;;;;;5037369;28;20044;-82
2022/12/25 01:45:51;;;;;;;6.25;2.75;;;10.90;89.50;;;;;;5047307;28;20438;-84
2022/12/25 01:48:22;;;;;;;5.70;2.60;;;11.00;89.50;;;;;;5056969;28;20032;-83
2022/12/25 01:50:57;;;;;;;6.30;2.83;;;11.00;89.50;;;;;;5056479;28;20028;-82
2022/12/25 01:53:24;;;;;;;6.07;2.90;;;11.00;89.50;;;;;;5054605;28;20032;-82
2022/12/25 01:55:55;;;;;;;6.70;2.75;;;11.00;89.50;;;;;;5051984;28;20025;-82
2022/12/25 01:58:21;;;;;;;7.15;3.13;;;11.00;89.50;;;;;;5035683;28;20404;-82
2022/12/25 02:00:46;;;;;;;6.65;3.10;;;11.00;89.40;;;;;;5052061;28;20167;-83
2022/12/25 02:03:12;;;;;;;5.38;2.47;;;11.00;89.30;;;;;;5055157;28;20032;-84
2022/12/25 02:05:38;;;;;;;6.13;2.58;;;11.10;89.30;;;;;;5054883;28;20108;-83
2022/12/25 02:08:08;;;;;;;5.70;2.70;;;11.10;89.10;;;;;;5051750;28;20395;-82
2022/12/25 02:10:34;;;;;;;6.35;2.90;;;11.10;88.90;;;;;;5036175;28;20029;-82
2022/12/25 02:13:00;;;;;;;5.35;2.33;;;11.10;88.80;;;;;;5034750;28;20109;-84
2022/12/25 02:15:36;;;;;;;5.97;2.67;;;11.10;88.70;;;;;;5036191;28;20108;-81
2022/12/25 02:18:12;;;;;;;5.63;2.78;;;11.20;88.60;;;;;;5034856;28;20124;-83
2022/12/25 02:21:00;;;;;;;5.63;2.40;;;11.20;88.60;;;;;;5034458;28;20018;-82
2022/12/25 02:23:37;;;;;;;5.35;2.22;;;11.10;88.60;;;;;;5034651;28;20022;-85
2022/12/25 02:26:08;;;;;;;6.10;2.20;;;11.10;89.30;;;;;;5035248;28;20052;-82
2022/12/25 02:28:51;;;;;;;5.13;2.50;;;11.10;88.90;;;;;;5035261;28;20032;-84
2022/12/25 02:31:25;;;;;;;5.22;2.38;;;11.10;89.00;;;;;;5034139;28;20073;-83
2022/12/25 02:34:03;;;;;;;5.15;2.30;;;11.10;89.20;;;;;;5050880;28;20029;-83
2022/12/25 02:36:40;;;;;;;6.55;2.45;;;11.10;89.30;;;;;;5050845;28;20047;-82
2022/12/25 02:42:07;;;;;;;5.75;2.78;;;11.00;89.40;;;;;;5035163;28;20047;-82
2022/12/25 03:07:10;;;;;;;13.55;3.72;;;11.00;89.60;;;;;;5054413;28;20071;-82
2022/12/25 03:12:49;;;;;;;5.60;2.42;;;11.00;89.70;;;;;;5045103;28;20132;-82
2022/12/25 03:18:05;;;;;;;5.13;2.50;;;11.00;89.60;;;;;;5038037;28;20470;-83
2022/12/25 03:28:56;;;;;;;6.60;2.38;;;11.00;89.60;;;;;;5029670;28;20484;-82
2022/12/25 03:31:49;;;;;;;5.78;2.60;;;11.00;89.60;;;;;;5053388;28;20037;-83
2022/12/25 04:36:12;;;;;;;4.45;2.10;;;11.00;90.00;;;;;;5053106;28;20055;-83
2022/12/25 04:38:39;;;;;;;4.13;2.10;;;11.10;89.60;;;;;;5053723;28;20475;-82
2022/12/25 04:41:05;;;;;;;5.05;1.92;;;11.10;89.60;;;;;;5053406;28;20068;-82
2022/12/25 04:43:31;;;;;;;5.50;2.10;;;11.00;89.30;;;;;;5051122;28;20112;-83
2022/12/25 04:45:59;;;;;;;5.00;2.30;;;11.10;89.30;;;;;;5052988;28;20067;-83
2022/12/25 04:48:25;;;;;;;5.28;2.08;;;11.10;89.10;;;;;;5054537;28;20025;-83
2022/12/25 04:50:51;;;;;;;6.65;2.20;;;11.10;89.00;;;;;;5052987;28;20125;-83
2022/12/25 04:53:17;;;;;;;5.10;2.08;;;11.10;88.80;;;;;;5049783;28;20031;-83
2022/12/25 04:55:43;;;;;;;4.95;2.35;;;11.10;88.70;;;;;;5049206;28;20027;-83
2022/12/25 04:58:09;;;;;;;4.78;1.90;;;11.20;88.70;;;;;;5034067;28;20668;-82
2022/12/25 05:00:34;;;;;;;5.57;2.22;;;11.20;88.60;;;;;;5033262;28;20412;-79
2022/12/25 05:03:00;;;;;;;4.22;2.10;;;11.20;88.60;;;;;;5032444;28;20025;-81
2022/12/25 05:05:25;;;;;;;5.85;2.00;;;11.20;88.60;;;;;;5049432;28;20554;-82
2022/12/25 05:07:51;;;;;;;4.32;2.10;;;11.20;88.60;;;;;;5051538;28;20017;-82
2022/12/25 05:10:16;;;;;;;5.30;2.22;;;11.20;88.60;;;;;;5052277;28;20063;-83
2022/12/25 05:12:42;;;;;;;3.95;1.83;;;11.20;88.70;;;;;;5043540;28;20050;-84
2022/12/25 05:15:08;;;;;;;4.13;2.10;;;11.10;88.70;;;;;;5053099;28;20029;-83
2022/12/25 05:17:34;;;;;;;5.10;2.00;;;11.20;89.00;;;;;;5052189;28;20040;-82
2022/12/25 05:20:00;;;;;;;3.72;1.60;;;11.10;89.00;;;;;;5052624;28;20025;-83
2022/12/25 05:22:25;;;;;;;3.97;2.00;;;11.10;89.20;;;;;;5051072;28;20033;-82
2022/12/25 05:24:51;;;;;;;5.40;2.05;;;11.10;89.30;;;;;;5046996;28;20092;-82
2022/12/25 05:27:16;;;;;;;5.05;2.20;;;11.10;89.40;;;;;;5051000;28;20021;-82
2022/12/25 05:29:42;;;;;;;5.72;2.20;;;11.10;89.50;;;;;;5053196;28;20074;-82
2022/12/25 05:32:07;;;;;;;4.47;1.95;;;11.00;89.50;;;;;;5053048;28;20025;-83
2022/12/25 05:34:33;;;;;;;3.85;2.08;;;11.00;89.60;;;;;;5054518;28;20024;-82
2022/12/25 05:36:58;;;;;;;3.78;2.00;;;11.00;89.60;;;;;;5056952;28;20017;-82
2022/12/25 05:39:24;;;;;;;4.68;2.00;;;11.00;89.60;;;;;;5046173;28;20029;-82
2022/12/25 05:41:49;;;;;;;5.43;2.10;;;11.00;89.70;;;;;;5055686;28;20111;-82
2022/12/25 05:44:15;;;;;;;3.92;1.80;;;11.00;89.70;;;;;;5055298;28;20403;-83
2022/12/25 05:46:40;;;;;;;4.38;2.17;;;11.00;89.80;;;;;;5054925;28;20028;-83
2022/12/25 05:49:06;;;;;;;4.60;2.03;;;11.00;89.80;;;;;;5055170;28;20056;-81
2022/12/25 05:51:32;;;;;;;4.35;1.92;;;11.00;89.80;;;;;;5056327;28;20037;-81
2022/12/25 05:53:57;;;;;;;4.32;1.90;;;11.00;89.80;;;;;;5051784;28;20037;-85
2022/12/25 05:56:23;;;;;;;5.68;2.08;;;11.00;89.80;;;;;;5037034;28;20021;-82
2022/12/25 05:58:48;;;;;;;5.15;2.08;;;11.00;89.80;;;;;;5053848;28;20032;-83
2022/12/25 06:01:18;;;;;;;4.85;2.00;;;11.00;89.80;;;;;;5047318;28;20040;-82
2022/12/25 06:03:43;;;;;;;4.78;2.17;;;11.00;89.80;;;;;;5055877;28;20112;-82
2022/12/25 06:06:10;;;;;;;4.35;1.90;;;11.00;89.90;;;;;;5056305;28;20447;-83
2022/12/25 06:08:36;;;;;;;4.32;2.00;;;11.00;89.90;;;;;;5055441;28;20067;-83
2022/12/25 06:11:03;;;;;;;3.90;1.98;;;11.00;89.80;;;;;;5055327;28;20029;-84
2022/12/25 06:13:29;;;;;;;4.95;2.05;;;11.00;89.90;;;;;;5056083;28;20025;-82
2022/12/25 06:15:55;;;;;;;5.07;2.22;;;11.00;89.90;;;;;;5048163;28;20021;-83
2022/12/25 06:18:20;;;;;;;5.13;2.20;;;11.00;89.90;;;;;;5035114;28;20418;-83
2022/12/25 06:20:46;;;;;;;5.40;1.92;;;11.00;89.90;;;;;;5035599;28;20035;-83
2022/12/25 06:23:11;;;;;;;4.22;1.70;;;11.00;90.00;;;;;;5035790;28;20231;-82
2022/12/25 06:25:39;;;;;;;5.38;2.08;;;11.00;89.90;;;;;;5054329;28;20083;-82
2022/12/25 06:28:04;;;;;;;5.57;2.10;;;11.00;90.00;;;;;;5055708;28;20028;-82
2022/12/25 06:30:30;;;;;;;4.63;2.13;;;11.00;90.00;;;;;;5055197;28;20021;-82
2022/12/25 06:32:56;;;;;;;4.28;1.95;;;11.00;89.90;;;;;;5044068;28;20064;-82
2022/12/25 06:35:22;;;;;;;5.53;2.00;;;11.00;90.00;;;;;;5035151;28;20053;-82
2022/12/25 06:37:47;;;;;;;4.45;1.88;;;11.00;89.90;;;;;;5032033;28;20717;-83
2022/12/25 06:40:13;;;;;;;4.50;1.77;;;11.00;89.90;;;;;;5043863;28;20033;-82
2022/12/25 06:42:38;;;;;;;5.03;1.98;;;11.00;89.90;;;;;;5054417;28;20029;-81
2022/12/25 06:45:04;;;;;;;4.97;1.92;;;11.00;89.90;;;;;;5045966;28;20072;-82
2022/12/25 06:47:30;;;;;;;3.42;1.85;;;11.00;89.90;;;;;;5033892;28;20068;-82
2022/12/25 06:49:55;;;;;;;5.13;1.98;;;11.00;89.90;;;;;;5034069;28;20112;-81
2022/12/25 06:52:21;;;;;;;4.88;2.00;;;11.00;89.90;;;;;;5040958;28;20024;-82
2022/12/25 06:54:46;;;;;;;4.63;1.92;;;11.00;89.90;;;;;;5053378;28;20056;-83
2022/12/25 06:57:12;;;;;;;4.82;2.00;;;11.00;90.00;;;;;;5053000;28;20029;-84
2022/12/25 06:59:37;;;;;;;4.85;1.88;;;11.00;89.90;;;;;;5054117;28;20472;-83
2022/12/25 07:02:03;;;;;;;4.28;1.98;;;11.00;89.90;;;;;;5052696;28;20075;-83
2022/12/25 07:04:36;;;;;;;4.13;2.10;;;11.00;89.80;;;;;;5045849;28;20028;-84
2022/12/25 07:07:03;;;;;;;4.53;1.90;;;11.00;89.90;;;;;;5036705;28;20049;-88
2022/12/25 07:09:29;;;;;;;3.90;1.92;;;11.00;89.80;;;;;;5044828;28;20025;-80
2022/12/25 07:12:03;;;;;;;5.47;1.90;;;11.00;90.10;;;;;;5054260;28;20031;-83
2022/12/25 07:14:28;;;;;;;4.78;2.08;;;11.00;90.10;;;;;;5050218;28;20033;-86
2022/12/25 07:16:53;;;;;;;4.53;1.80;;;10.90;89.70;;;;;;5036788;28;20025;-81
2022/12/25 07:19:19;;;;;;;4.90;1.80;;;11.00;89.80;;;;;;5033394;28;20522;-83
2022/12/25 07:21:45;;;;;;;3.53;1.80;;;11.00;89.80;;;;;;5034820;28;20082;-82
2022/12/25 07:24:10;;;;;;;4.32;1.70;;;11.00;89.80;;;;;;5042363;28;20538;-86
2022/12/25 07:26:36;;;;;;;3.17;1.73;;;11.00;89.80;;;;;;5031285;28;20498;-80
2022/12/25 07:29:01;;;;;;;5.15;1.65;;;11.00;89.80;;;;;;5031206;28;20025;-83
2022/12/25 07:31:27;;;;;;;3.38;1.75;;;11.00;89.80;;;;;;5030008;28;20025;-80
2022/12/25 07:33:53;;;;;;;5.00;2.00;;;10.90;89.70;;;;;;5044592;28;20092;-82
2022/12/25 07:36:19;;;;;;;4.55;1.85;;;11.00;89.80;;;;;;5030446;28;20060;-82
2022/12/25 07:38:48;;;;;;;5.78;2.05;;;11.10;89.80;;;;;;5035621;28;20116;-81
2022/12/25 07:41:14;;;;;;;4.10;1.80;;;11.00;89.70;;;;;;5050823;28;20180;-82
2022/12/25 07:43:39;;;;;;;4.38;1.83;;;11.00;89.80;;;;;;5050720;28;20890;-82
2022/12/25 07:46:05;;;;;;;4.68;1.85;;;11.00;89.80;;;;;;5050240;28;20495;-81
2022/12/25 07:48:31;;;;;;;3.55;1.60;;;11.00;89.70;;;;;;5050038;28;20112;-82
2022/12/25 07:50:59;;;;;;;3.65;1.60;;;11.00;89.70;;;;;;5034906;28;20184;-81
2022/12/25 07:53:25;;;;;;;5.03;1.90;;;11.00;89.70;;;;;;5043213;28;20033;-85
2022/12/25 07:56:06;;;;;;;3.30;1.48;;;11.10;89.80;;;;;;5036976;28;20028;-83
2022/12/25 07:58:32;;;;;;;;;;;11.10;89.70;;;;;;5050414;28;20135;-83
2022/12/25 08:01:07;;;;;;;3.80;1.73;;;11.00;89.60;;;;;;5049408;28;19999;-83
2022/12/25 08:03:33;;;;;;;3.60;1.70;;;11.10;89.60;;;;;;5049522;28;20166;-82
2022/12/25 08:06:07;;;;;;;3.63;1.50;;;11.10;89.50;;;;;;5049549;28;20032;-83
2022/12/25 08:08:33;;;;;;;4.28;1.75;;;11.10;89.30;;;;;;5049606;28;20032;-82
2022/12/25 08:10:59;;;;;;;3.65;1.60;;;11.10;89.10;;;;;;5049017;28;20507;-87
2022/12/25 08:13:25;;;;;;;3.78;1.60;;;11.20;89.00;;;;;;5040515;28;20036;-83
2022/12/25 08:15:57;;;;;;;3.20;1.63;;;11.20;88.90;;;;;;5037540;28;20506;-83
2022/12/25 08:18:23;;;;;;;3.60;1.73;;;11.30;88.90;;;;;;5049277;28;20964;-83
2022/12/25 08:20:48;;;;;;;3.53;1.60;;;11.30;88.80;;;;;;5049198;28;20033;-84
2022/12/25 08:23:13;;;;;;;3.70;1.55;;;11.20;88.50;;;;;;5033844;28;20030;-82
2022/12/25 08:25:39;;;;;;;3.92;1.73;;;11.30;88.90;;;;;;5030728;28;20022;-82
2022/12/25 08:28:04;;;;;;;4.55;1.90;;;11.20;88.90;;;;;;5058525;28;20036;-85
2022/12/25 08:30:30;;;;;;;3.00;1.77;;;11.20;89.00;;;;;;5028736;28;20037;-84
2022/12/25 08:32:55;;;;;;;3.83;1.80;;;11.20;89.10;;;;;;5041157;28;20025;-82
2022/12/25 08:35:21;;;;;;;3.85;1.60;;;11.20;89.20;;;;;;5049363;28;20033;-84
2022/12/25 08:37:47;;;;;;;4.03;1.88;;;11.20;89.30;;;;;;5049802;28;20036;-82
2022/12/25 08:40:12;;;;;;;4.95;1.77;;;11.10;89.30;;;;;;5049059;28;20032;-83
2022/12/25 08:42:38;;;;;;;4.15;1.60;;;11.20;89.40;;;;;;5046663;28;20033;-84
2022/12/25 08:45:04;;;;;;;3.22;1.65;;;11.10;89.50;;;;;;5049235;28;20104;-83
2022/12/25 08:47:29;;;;;;;4.28;1.77;;;11.10;89.50;;;;;;5045874;28;20433;-82
2022/12/25 08:49:55;;;;;;;3.70;1.70;;;11.10;89.50;;;;;;5028509;28;20048;-84
2022/12/25 08:52:20;;;;;;;4.43;1.70;;;11.00;89.50;;;;;;5037050;28;20028;-82
2022/12/25 08:54:46;;;;;;;3.72;1.88;;;11.10;89.60;;;;;;5042334;28;20155;-82
2022/12/25 08:57:11;;;;;;;3.60;1.85;;;11.10;89.70;;;;;;5047078;28;20021;-82
2022/12/25 08:59:37;;;;;;;2.90;1.50;;;11.10;89.70;;;;;;5029449;28;20104;-87
2022/12/25 09:02:04;;;;;;;4.03;1.80;;;11.10;89.70;;;;;;5033581;28;20067;-82
2022/12/25 09:04:29;;;;;;;3.58;1.75;;;11.10;89.70;;;;;;5048530;28;20029;-84
2022/12/25 09:06:55;;;;;;;3.83;1.58;;;11.10;89.70;;;;;;5049939;28;20033;-84
2022/12/25 09:09:24;;;;;;;4.18;1.65;;;11.10;89.70;;;;;;5051672;28;20529;-84
2022/12/25 09:11:49;;;;;;;5.93;2.15;;;11.10;89.70;;;;;;5051326;28;20082;-82
2022/12/25 09:14:15;;;;;;;4.30;1.60;;;11.10;89.80;;;;;;5051261;28;20029;-85
2022/12/25 09:16:40;;;;;;;4.50;1.85;;;11.10;89.80;;;;;;5050992;28;20506;-81
2022/12/25 09:19:06;;;;;;;4.03;2.05;;;11.10;89.80;;;;;;5052112;28;20079;-83
2022/12/25 09:21:31;;;;;;;3.65;1.75;;;11.10;89.80;;;;;;5050415;28;20025;-80
2022/12/25 09:23:57;;;;;;;5.78;1.98;;;11.10;89.90;;;;;;5038116;28;20551;-82
2022/12/25 09:26:22;;;;;;;3.50;1.77;;;11.10;90.00;;;;;;5050977;28;20059;-83
2022/12/25 09:28:48;;;;;;;4.50;2.13;;;11.10;89.90;;;;;;5052648;28;20683;-81
2022/12/25 09:31:13;;;;;;;5.18;2.10;;;11.10;89.90;;;;;;5050758;28;20052;-82
2022/12/25 09:33:39;;;;;;;4.43;1.83;;;11.10;89.80;;;;;;5039801;28;20104;-80
2022/12/25 09:36:07;;;;;;;4.70;1.90;;;11.10;89.90;;;;;;5048640;28;20032;-86
2022/12/25 09:38:33;;;;;;;4.43;2.10;;;11.10;89.90;;;;;;5047544;28;20045;-82
2022/12/25 09:41:12;;;;;;;4.20;1.90;;;11.10;89.80;;;;;;5037522;28;20029;-81
2022/12/25 09:43:41;;;;;;;4.47;1.98;;;11.00;89.80;;;;;;5037604;28;20573;-82
2022/12/25 09:46:12;;;;;;;3.97;1.75;;;11.10;89.80;;;;;;5030042;28;20083;-83
2022/12/25 09:48:41;;;;;;;3.45;1.85;;;11.10;89.90;;;;;;5031644;28;20025;-83
2022/12/25 09:51:11;;;;;;;2.78;1.70;;;11.10;89.80;;;;;;5029751;28;20065;-83
2022/12/25 09:53:47;;;;;;;4.30;1.80;;;11.10;89.70;;;;;;5030326;28;20029;-81
2022/12/25 09:56:26;;;;;;;3.47;1.92;;;11.10;89.80;;;;;;5046475;28;20572;-81
2022/12/25 09:58:53;;;;;;;3.92;1.92;;;11.10;89.70;;;;;;5046553;28;20648;-82
2022/12/25 10:01:52;;;;;;;3.92;1.83;;;11.10;89.70;;;;;;5046493;28;20025;-82
2022/12/25 10:04:43;;;;;;;4.07;1.70;;;11.10;90.10;;;;;;5048887;28;20028;-82
2022/12/25 10:07:22;;;;;;;4.43;1.90;;;11.10;89.80;;;;;;5050972;28;20021;-86
2022/12/25 10:10:18;;;;;;;4.30;1.90;;;11.10;89.70;;;;;;5049735;28;20039;-83
2022/12/25 10:13:17;;;;;;;3.72;2.00;;;11.10;89.70;;;;;;5049355;28;20036;-83
2022/12/25 10:15:57;;;;;;;4.82;2.08;;;11.10;89.70;;;;;;5030893;28;20172;-82
2022/12/25 10:18:51;;;;;;;4.32;1.95;;;11.10;89.70;;;;;;5029653;28;20087;-83
2022/12/25 10:21:18;;;;;;;4.50;2.10;;;11.10;89.60;;;;;;5055404;28;20057;-87
2022/12/25 10:24:12;;;;;;;4.28;1.90;;;11.10;89.70;;;;;;5047935;28;20498;-84
2022/12/25 10:26:38;;;;;;;3.63;1.75;;;11.10;89.70;;;;;;5035423;28;20037;-84
2022/12/25 10:29:16;;;;;;;4.78;2.08;;;11.10;89.60;;;;;;5052983;28;20033;-84
2022/12/25 10:31:45;;;;;;;3.42;1.80;;;11.10;89.70;;;;;;5052035;28;20025;-82
2022/12/25 10:34:12;;;;;;;5.18;2.10;;;11.10;89.60;;;;;;5045431;28;20342;-83
2022/12/25 10:36:38;;;;;;;4.38;1.90;;;11.10;89.70;;;;;;5033865;28;20484;-82
2022/12/25 10:39:03;;;;;;;3.55;1.85;;;11.10;89.80;;;;;;5049879;28;20151;-82
2022/12/25 10:41:58;;;;;;;4.07;1.90;;;11.10;89.70;;;;;;5038859;28;20395;-82
2022/12/25 10:44:24;;;;;;;4.55;1.80;;;11.10;89.50;;;;;;5050098;28;20038;-83
2022/12/25 10:46:53;;;;;;;3.95;2.03;;;11.10;89.40;;;;;;5049992;28;20075;-81
2022/12/25 10:49:21;;;;;;;4.47;2.03;;;11.20;89.30;;;;;;5049544;28;20104;-82
2022/12/25 10:51:47;;;;;;;3.80;1.80;;;11.20;89.30;;;;;;5050329;28;20025;-81
2022/12/25 10:54:26;;;;;;;3.38;1.77;;;11.20;89.20;;;;;;5045735;28;20029;-83
2022/12/25 10:57:03;;;;;;;4.18;1.90;;;11.20;89.00;;;;;;5029746;28;20040;-82
2022/12/25 10:59:33;;;;;;;3.80;1.90;;;11.30;89.00;;;;;;5037477;28;20029;-81
2022/12/25 11:02:12;;;;;;;4.10;1.60;;;11.30;88.90;;;;;;5047714;28;20032;-81
2022/12/25 11:04:38;;;;;;;3.13;1.70;;;11.30;88.80;;;;;;5049324;28;20071;-85
2022/12/25 11:07:07;;;;;;;3.67;1.83;;;11.30;88.70;;;;;;5056193;28;20306;-89
2022/12/25 11:09:33;;;;;;;2.47;1.70;;;11.30;88.70;;;;;;5057276;28;20049;-90
2022/12/25 11:11:59;;;;;;;3.65;1.95;;;11.20;88.90;;;;;;5053078;28;20025;-86
2022/12/25 11:14:26;;;;;;;3.75;1.90;;;11.20;89.00;;;;;;5048576;28;20140;-84
2022/12/25 11:16:52;;;;;;;3.30;1.90;;;11.20;89.10;;;;;;5041201;28;20251;-86
2022/12/25 11:19:25;;;;;;;4.32;2.20;;;11.20;89.20;;;;;;5046652;28;20111;-84
2022/12/25 11:21:53;;;;;;;4.55;2.00;;;11.20;89.30;;;;;;5036985;28;20021;-83
2022/12/25 11:24:23;;;;;;;3.30;1.85;;;11.20;89.40;;;;;;5050798;28;20029;-84
2022/12/25 11:26:51;;;;;;;3.80;2.05;;;11.20;89.50;;;;;;5046558;28;20128;-82
2022/12/25 11:29:45;;;;;;;3.03;1.67;;;11.10;89.60;;;;;;5049484;28;20553;-84
2022/12/25 11:32:22;;;;;;;3.83;2.00;;;11.10;89.60;;;;;;5044037;28;20034;-82
2022/12/25 11:34:49;;;;;;;3.38;1.92;;;11.10;89.70;;;;;;5038480;28;20479;-86
2022/12/25 11:37:20;;;;;;;3.20;1.63;;;11.10;89.70;;;;;;5048014;28;20036;-85
2022/12/25 11:39:46;;;;;;;3.27;1.80;;;11.10;89.80;;;;;;5049579;28;20025;-83
2022/12/25 11:42:31;;;;;;;3.90;2.05;;;11.10;89.80;;;;;;5048603;28;20298;-83
2022/12/25 11:45:06;;;;;;;3.63;1.85;;;11.10;89.90;;;;;;5046010;28;20021;-82
2022/12/25 11:47:53;;;;;;;3.33;1.80;;;11.10;89.90;;;;;;5045790;28;20506;-81
2022/12/25 11:50:25;;;;;;;4.20;2.05;;;11.10;89.80;;;;;;5048663;28;20025;-81
2022/12/25 11:52:52;;;;;;;3.17;1.95;;;11.10;89.90;;;;;;5047574;28;20029;-76
2022/12/25 11:55:28;;;;;;;2.83;1.75;;;11.10;89.90;;;;;;5046630;28;20025;-76
2022/12/25 11:58:02;;;;;;;3.67;1.73;;;11.10;89.90;;;;;;5047588;28;20021;-76
2022/12/25 12:00:32;;;;;;;4.18;2.25;;;11.10;89.90;;;;;;5047321;28;20037;-76
2022/12/25 12:03:18;;;;;;;3.45;1.80;;;11.10;89.90;;;;;;5043289;28;20494;-76
2022/12/25 12:06:05;;;;;;;5.07;2.20;;;11.10;89.90;;;;;;5046039;28;20616;-75
2022/12/25 12:08:32;;;;;;;4.40;2.10;;;11.10;89.90;;;;;;5028176;28;20117;-82
2022/12/25 12:11:15;;;;;;;3.22;1.80;;;11.10;89.90;;;;;;5046434;28;20754;-76
2022/12/25 12:13:50;;;;;;;4.45;2.10;;;11.10;89.90;;;;;;5046684;28;20028;-77
2022/12/25 12:16:15;;;;;;;3.70;2.05;;;11.10;89.90;;;;;;5047588;28;20037;-76
2022/12/25 12:18:41;;;;;;;5.18;2.22;;;11.10;90.00;;;;;;5048166;28;20033;-75
2022/12/25 12:21:16;;;;;;;3.58;1.90;;;11.10;89.90;;;;;;5038743;28;20029;-77
2022/12/25 12:24:04;;;;;;;3.83;2.08;;;11.10;89.90;;;;;;5029984;28;20033;-77
2022/12/25 12:26:35;;;;;;;4.93;2.15;;;11.10;89.90;;;;;;5047705;28;20087;-77
2022/12/25 12:29:03;;;;;;;3.65;2.00;;;11.10;89.90;;;;;;5046437;28;20039;-76
2022/12/25 12:31:44;;;;;;;3.55;1.90;;;11.10;89.90;;;;;;5045624;28;20388;-75
2022/12/25 12:34:46;;;;;;;3.88;2.08;;;11.10;89.90;;;;;;5047644;28;20025;-75
2022/12/25 12:37:23;;;;;;;4.00;1.90;;;11.10;89.90;;;;;;5047446;28;20047;-75
2022/12/25 12:39:53;;;;;;;3.92;1.95;;;11.10;89.90;;;;;;5047772;28;20078;-76
2022/12/25 12:42:24;;;;;;;4.15;2.17;;;11.10;89.90;;;;;;5047649;28;20040;-75
2022/12/25 12:44:51;;;;;;;;;;;11.10;90.00;;;;;;5051936;28;20066;-74
2022/12/25 12:47:39;;;;;;;4.20;2.00;;;11.10;90.00;;;;;;5070719;28;19911;-75
2022/12/25 12:50:06;;;;;;;4.05;2.15;;;11.10;90.00;;;;;;5050101;28;20033;-75
2022/12/25 12:52:37;;;;;;;4.60;2.28;;;11.10;90.00;;;;;;5038928;28;20029;-75
2022/12/25 12:55:11;;;;;;;4.30;2.20;;;11.10;89.90;;;;;;5045170;28;20029;-76
2022/12/25 12:57:41;;;;;;;4.85;2.35;;;11.10;89.90;;;;;;5050433;28;20108;-74
2022/12/25 13:00:20;;;;;;;3.75;2.00;;;11.10;89.90;;;;;;5051127;28;20395;-75
2022/12/25 13:03:31;;;;;;;2.88;1.77;;;11.10;89.90;;;;;;5050696;28;20021;-76
2022/12/25 13:06:12;;;;;;;4.20;2.10;;;11.10;89.90;;;;;;5049662;28;20025;-76
2022/12/25 13:09:15;;;;;;;3.47;1.98;;;11.10;89.80;;;;;;5050352;28;20112;-75
2022/12/25 13:11:43;;;;;;;4.32;2.10;;;11.10;89.80;;;;;;5036000;28;20029;-76
2022/12/25 13:14:18;;;;;;;4.57;2.22;;;11.10;89.90;;;;;;5051250;28;20061;-76
2022/12/25 13:16:46;;;;;;;4.55;2.20;;;11.10;89.80;;;;;;5050887;28;20108;-75
2022/12/25 13:19:21;;;;;;;5.22;2.22;;;11.10;89.90;;;;;;5050689;28;20106;-78
2022/12/25 13:22:02;;;;;;;3.75;2.10;;;11.10;89.80;;;;;;5049341;28;20174;-75
2022/12/25 13:24:30;;;;;;;4.30;2.08;;;11.10;89.80;;;;;;5049727;28;20040;-76
2022/12/25 13:26:55;;;;;;;3.85;1.98;;;11.10;89.80;;;;;;5049583;28;20039;-81
2022/12/25 13:29:36;;;;;;;3.42;1.75;;;11.10;89.70;;;;;;5049894;28;20021;-75
2022/12/25 13:32:04;;;;;;;3.75;2.10;;;11.20;89.60;;;;;;5045460;28;20025;-76
2022/12/25 13:34:39;;;;;;;3.50;2.00;;;11.20;89.50;;;;;;5033684;28;20036;-76
2022/12/25 13:37:08;;;;;;;4.40;2.00;;;11.20;89.30;;;;;;5048823;28;20038;-77
2022/12/25 13:39:36;;;;;;;3.30;1.85;;;11.20;89.20;;;;;;5029447;28;20034;-77
2022/12/25 13:42:05;;;;;;;3.00;1.88;;;11.20;89.00;;;;;;5033463;28;20117;-76
2022/12/25 13:44:48;;;;;;;3.83;1.95;;;11.30;89.00;;;;;;5045976;28;20498;-76
2022/12/25 13:47:29;;;;;;;3.78;1.75;;;11.30;88.90;;;;;;5049459;28;20057;-75
2022/12/25 13:49:55;;;;;;;4.10;1.90;;;11.20;88.90;;;;;;5040774;28;20060;-75
2022/12/25 13:52:27;;;;;;;4.65;2.00;;;11.20;89.20;;;;;;5045612;28;20067;-74
2022/12/25 13:54:59;;;;;;;4.55;2.17;;;11.20;89.30;;;;;;5048414;28;20037;-76
2022/12/25 13:57:30;;;;;;;3.08;1.80;;;11.20;89.40;;;;;;5038418;28;20039;-76
2022/12/25 13:59:56;;;;;;;4.77;1.97;;;11.20;89.40;;;;;;5030381;28;20435;-82
2022/12/25 14:02:27;;;;;;;3.22;1.98;;;11.20;89.50;;;;;;5036068;28;20029;-77
2022/12/25 14:04:53;;;;;;;4.32;2.22;;;11.10;89.60;;;;;;5037739;28;20025;-79
2022/12/25 14:07:22;;;;;;;4.50;2.28;;;11.20;89.70;;;;;;5039368;28;20044;-75
2022/12/25 14:09:57;;;;;;;3.78;1.95;;;11.10;89.80;;;;;;5042816;28;20519;-78
2022/12/25 14:12:23;;;;;;;3.85;2.03;;;11.10;89.80;;;;;;5044247;28;20092;-76
2022/12/25 14:14:51;;;;;;;3.55;1.98;;;11.10;89.80;;;;;;5029548;28;20029;-75
2022/12/25 14:17:17;;;;;;;4.22;2.20;;;11.10;90.00;;;;;;5029864;28;20041;-74
2022/12/25 14:19:43;;;;;;;5.53;2.05;;;11.10;89.90;;;;;;5055400;28;20069;-75
2022/12/25 14:22:17;;;;;;;4.85;2.40;;;11.10;89.90;;;;;;5047320;28;20057;-80
2022/12/25 14:24:43;;;;;;;4.63;2.05;;;11.10;89.90;;;;;;5048817;28;20025;-74
2022/12/25 14:27:29;;;;;;;3.85;2.00;;;11.10;89.90;;;;;;5047663;28;20021;-77
2022/12/25 14:29:57;;;;;;;3.78;2.10;;;11.10;89.90;;;;;;5049065;28;20155;-76
2022/12/25 14:32:25;;;;;;;5.13;2.38;;;11.10;89.90;;;;;;5043894;28;20115;-76
2022/12/25 14:34:57;;;;;;;4.75;2.17;;;11.10;90.00;;;;;;5046258;28;20025;-76
2022/12/25 14:37:27;;;;;;;3.22;1.85;;;11.10;90.00;;;;;;5049377;28;20102;-76
2022/12/25 14:40:01;;;;;;;3.78;2.05;;;11.10;89.90;;;;;;5047607;28;20036;-73
2022/12/25 14:42:29;;;;;;;3.60;1.92;;;11.10;90.00;;;;;;5036502;28;20044;-76
2022/12/25 14:45:03;;;;;;;4.85;2.30;;;11.10;90.00;;;;;;5044972;28;20025;-84